sensor_id;sensor_type;location;lat;lon;timestamp;temperature;humidity
66629;DHT22;53532;53.084;6.352;2022-12-05T00:03:22;5.30;99.90
66629;DHT22;53532;53.084;6.352;2022-12-05T00:08:14;5.30;99.90
66629;DHT22;53532;53.084;6.352;2022-12-05T00:10:41;5.30;99.90
66629;DHT22;53532;53.084;6.352;2022-12-05T00:13:07;5.30;99.90
66629;DHT22;53532;53.084;6.352;2022-12-05T00:15:35;5.30;99.90
66629;DHT22;53532;53.084;6.352;2022-12-05T00:18:02;5.30;99.90
66629;DHT22;53532;53.084;6.352;2022-12-05T00:20:28;5.30;99.90
66629;DHT22;53532;53.084;6.352;2022-12-05T00:22:53;5.30;99.90
66629;DHT22;53532;53.084;6.352;2022-12-05T00:25:19;5.30;99.90
66629;DHT22;53532;53.084;6.352;2022-12-05T00:30:12;5.30;99.90
66629;DHT22;53532;53.084;6.352;2022-12-05T00:32:38;5.30;99.90
66629;DHT22;53532;53.084;6.352;2022-12-05T00:35:04;5.30;99.90
66629;DHT22;53532;53.084;6.352;2022-12-05T00:37:30;5.40;99.90
66629;DHT22;53532;53.084;6.352;2022-12-05T00:39:56;5.40;99.90
66629;DHT22;53532;53.084;6.352;2022-12-05T00:42:22;5.40;99.90
66629;DHT22;53532;53.084;6.352;2022-12-05T00:44:49;5.40;99.90
66629;DHT22;53532;53.084;6.352;2022-12-05T00:47:15;5.40;99.90
66629;DHT22;53532;53.084;6.352;2022-12-05T00:49:41;5.40;99.90
66629;DHT22;53532;53.084;6.352;2022-12-05T00:52:07;5.40;99.90
66629;DHT22;53532;53.084;6.352;2022-12-05T00:54:32;5.40;99.90
66629;DHT22;53532;53.084;6.352;2022-12-05T00:56:58;5.40;99.90
66629;DHT22;53532;53.084;6.352;2022-12-05T00:59:24;5.50;99.90
66629;DHT22;53532;53.084;6.352;2022-12-05T01:01:51;5.50;99.90
66629;DHT22;53532;53.084;6.352;2022-12-05T01:04:19;5.50;99.90
66629;DHT22;53532;53.084;6.352;2022-12-05T01:09:14;5.60;99.90
66629;DHT22;53532;53.084;6.352;2022-12-05T01:11:40;5.60;99.90
66629;DHT22;53532;53.084;6.352;2022-12-05T01:16:35;5.60;99.90
66629;DHT22;53532;53.084;6.352;2022-12-05T01:19:04;5.60;99.90
66629;DHT22;53532;53.084;6.352;2022-12-05T01:23:57;5.70;99.90
66629;DHT22;53532;53.084;6.352;2022-12-05T01:26:23;5.70;99.90
66629;DHT22;53532;53.084;6.352;2022-12-05T01:28:50;5.70;99.90
66629;DHT22;53532;53.084;6.352;2022-12-05T01:31:18;5.60;99.90
66629;DHT22;53532;53.084;6.352;2022-12-05T01:33:45;5.70;99.90
66629;DHT22;53532;53.084;6.352;2022-12-05T01:36:13;5.70;99.90
66629;DHT22;53532;53.084;6.352;2022-12-05T01:38:40;5.80;99.90
66629;DHT22;53532;53.084;6.352;2022-12-05T01:41:09;5.70;99.90
66629;DHT22;53532;53.084;6.352;2022-12-05T01:43:57;5.70;99.90
66629;DHT22;53532;53.084;6.352;2022-12-05T01:46:24;5.80;99.90
66629;DHT22;53532;53.084;6.352;2022-12-05T01:48:54;5.70;99.90
66629;DHT22;53532;53.084;6.352;2022-12-05T01:51:24;5.80;99.90
66629;DHT22;53532;53.084;6.352;2022-12-05T01:53:50;5.80;99.90
66629;DHT22;53532;53.084;6.352;2022-12-05T01:56:17;5.80;99.90
66629;DHT22;53532;53.084;6.352;2022-12-05T01:58:44;5.80;99.90
66629;DHT22;53532;53.084;6.352;2022-12-05T02:01:11;5.80;99.90
66629;DHT22;53532;53.084;6.352;2022-12-05T02:03:39;5.80;99.90
66629;DHT22;53532;53.084;6.352;2022-12-05T02:06:05;5.80;99.90
66629;DHT22;53532;53.084;6.352;2022-12-05T02:08:32;5.80;99.90
66629;DHT22;53532;53.084;6.352;2022-12-05T02:10:58;5.80;99.90
66629;DHT22;53532;53.084;6.352;2022-12-05T02:13:38;5.90;99.90
66629;DHT22;53532;53.084;6.352;2022-12-05T02:18:46;5.90;99.90
66629;DHT22;53532;53.084;6.352;2022-12-05T02:21:31;5.90;99.90
66629;DHT22;53532;53.084;6.352;2022-12-05T02:24:21;5.90;99.90
66629;DHT22;53532;53.084;6.352;2022-12-05T02:27:03;5.90;99.90
66629;DHT22;53532;53.084;6.352;2022-12-05T02:30:01;5.90;99.90
66629;DHT22;53532;53.084;6.352;2022-12-05T02:32:35;5.90;99.90
66629;DHT22;53532;53.084;6.352;2022-12-05T02:35:11;6.00;99.90
66629;DHT22;53532;53.084;6.352;2022-12-05T02:37:43;6.00;99.90
66629;DHT22;53532;53.084;6.352;2022-12-05T02:40:18;6.00;99.90
66629;DHT22;53532;53.084;6.352;2022-12-05T02:42:52;6.00;99.90
66629;DHT22;53532;53.084;6.352;2022-12-05T02:45:20;6.00;99.90
66629;DHT22;53532;53.084;6.352;2022-12-05T02:47:49;6.00;99.90
66629;DHT22;53532;53.084;6.352;2022-12-05T02:50:18;6.00;99.90
66629;DHT22;53532;53.084;6.352;2022-12-05T02:52:46;6.10;99.90
66629;DHT22;53532;53.084;6.352;2022-12-05T02:55:13;6.10;99.90
66629;DHT22;53532;53.084;6.352;2022-12-05T02:57:45;6.10;99.90
66629;DHT22;53532;53.084;6.352;2022-12-05T03:00:13;6.10;99.90
66629;DHT22;53532;53.084;6.352;2022-12-05T03:02:41;6.00;99.90
66629;DHT22;53532;53.084;6.352;2022-12-05T03:05:16;6.00;99.90
66629;DHT22;53532;53.084;6.352;2022-12-05T03:07:46;6.10;99.90
66629;DHT22;53532;53.084;6.352;2022-12-05T03:10:14;6.00;99.90
66629;DHT22;53532;53.084;6.352;2022-12-05T03:12:45;6.00;99.90
66629;DHT22;53532;53.084;6.352;2022-12-05T03:15:15;6.00;99.90
66629;DHT22;53532;53.084;6.352;2022-12-05T03:17:46;6.00;99.90
66629;DHT22;53532;53.084;6.352;2022-12-05T03:20:19;6.00;99.90
66629;DHT22;53532;53.084;6.352;2022-12-05T03:22:47;6.00;99.90
66629;DHT22;53532;53.084;6.352;2022-12-05T03:25:16;6.10;99.90
66629;DHT22;53532;53.084;6.352;2022-12-05T03:27:46;6.10;99.90
66629;DHT22;53532;53.084;6.352;2022-12-05T03:30:16;6.00;99.90
66629;DHT22;53532;53.084;6.352;2022-12-05T03:32:50;6.00;99.90
66629;DHT22;53532;53.084;6.352;2022-12-05T03:35:23;6.00;99.90
66629;DHT22;53532;53.084;6.352;2022-12-05T03:37:55;6.00;99.90
66629;DHT22;53532;53.084;6.352;2022-12-05T03:40:26;6.00;99.90
66629;DHT22;53532;53.084;6.352;2022-12-05T03:42:56;6.00;99.90
66629;DHT22;53532;53.084;6.352;2022-12-05T03:45:30;6.00;99.90
66629;DHT22;53532;53.084;6.352;2022-12-05T03:48:06;6.00;99.90
66629;DHT22;53532;53.084;6.352;2022-12-05T03:50:36;6.10;99.90
66629;DHT22;53532;53.084;6.352;2022-12-05T03:53:06;6.00;99.90
66629;DHT22;53532;53.084;6.352;2022-12-05T03:55:36;6.00;99.90
66629;DHT22;53532;53.084;6.352;2022-12-05T03:58:06;6.10;99.90
66629;DHT22;53532;53.084;6.352;2022-12-05T04:00:34;6.00;99.90
66629;DHT22;53532;53.084;6.352;2022-12-05T04:03:07;6.10;99.90
66629;DHT22;53532;53.084;6.352;2022-12-05T04:05:37;6.00;99.90
66629;DHT22;53532;53.084;6.352;2022-12-05T04:08:06;6.00;99.90
66629;DHT22;53532;53.084;6.352;2022-12-05T04:10:36;6.10;99.90
66629;DHT22;53532;53.084;6.352;2022-12-05T04:13:15;6.00;99.90
66629;DHT22;53532;53.084;6.352;2022-12-05T04:15:47;6.00;99.90
66629;DHT22;53532;53.084;6.352;2022-12-05T04:18:36;6.00;99.90
66629;DHT22;53532;53.084;6.352;2022-12-05T04:21:04;6.00;99.90
66629;DHT22;53532;53.084;6.352;2022-12-05T04:23:50;6.00;99.90
66629;DHT22;53532;53.084;6.352;2022-12-05T04:26:39;6.10;99.90
66629;DHT22;53532;53.084;6.352;2022-12-05T04:29:13;6.00;99.90
66629;DHT22;53532;53.084;6.352;2022-12-05T04:31:42;6.10;99.90
66629;DHT22;53532;53.084;6.352;2022-12-05T04:34:11;6.00;99.90
66629;DHT22;53532;53.084;6.352;2022-12-05T04:36:42;6.10;99.90
66629;DHT22;53532;53.084;6.352;2022-12-05T04:39:11;6.10;99.90
66629;DHT22;53532;53.084;6.352;2022-12-05T04:41:41;6.10;99.90
66629;DHT22;53532;53.084;6.352;2022-12-05T04:44:13;6.10;99.90
66629;DHT22;53532;53.084;6.352;2022-12-05T04:46:43;6.10;99.90
66629;DHT22;53532;53.084;6.352;2022-12-05T04:49:16;6.00;99.90
66629;DHT22;53532;53.084;6.352;2022-12-05T04:51:44;6.10;99.90
66629;DHT22;53532;53.084;6.352;2022-12-05T04:54:16;6.10;99.90
66629;DHT22;53532;53.084;6.352;2022-12-05T04:56:45;6.00;99.90
66629;DHT22;53532;53.084;6.352;2022-12-05T04:59:13;6.00;99.90
66629;DHT22;53532;53.084;6.352;2022-12-05T05:01:42;6.00;99.90
66629;DHT22;53532;53.084;6.352;2022-12-05T05:04:13;6.00;99.90
66629;DHT22;53532;53.084;6.352;2022-12-05T05:06:41;6.00;99.90
66629;DHT22;53532;53.084;6.352;2022-12-05T05:09:09;6.00;99.90
66629;DHT22;53532;53.084;6.352;2022-12-05T05:11:35;6.00;99.90
66629;DHT22;53532;53.084;6.352;2022-12-05T05:14:02;6.10;99.90
66629;DHT22;53532;53.084;6.352;2022-12-05T05:16:29;6.00;99.90
66629;DHT22;53532;53.084;6.352;2022-12-05T05:18:56;6.00;99.90
66629;DHT22;53532;53.084;6.352;2022-12-05T05:21:25;6.00;99.90
66629;DHT22;53532;53.084;6.352;2022-12-05T05:23:51;6.00;99.90
66629;DHT22;53532;53.084;6.352;2022-12-05T05:26:18;6.10;99.90
66629;DHT22;53532;53.084;6.352;2022-12-05T05:28:44;6.00;99.90
66629;DHT22;53532;53.084;6.352;2022-12-05T05:31:11;6.00;99.90
66629;DHT22;53532;53.084;6.352;2022-12-05T05:33:37;6.10;99.90
66629;DHT22;53532;53.084;6.352;2022-12-05T05:36:04;6.00;99.90
66629;DHT22;53532;53.084;6.352;2022-12-05T05:38:34;6.00;99.90
66629;DHT22;53532;53.084;6.352;2022-12-05T05:41:01;6.00;99.90
66629;DHT22;53532;53.084;6.352;2022-12-05T05:43:27;6.10;99.90
66629;DHT22;53532;53.084;6.352;2022-12-05T05:45:52;6.10;99.90
66629;DHT22;53532;53.084;6.352;2022-12-05T05:48:18;6.00;99.90
66629;DHT22;53532;53.084;6.352;2022-12-05T05:50:44;6.00;99.90
66629;DHT22;53532;53.084;6.352;2022-12-05T05:53:10;6.10;99.90
66629;DHT22;53532;53.084;6.352;2022-12-05T05:55:40;6.00;99.90
66629;DHT22;53532;53.084;6.352;2022-12-05T05:58:06;6.00;99.90
66629;DHT22;53532;53.084;6.352;2022-12-05T06:00:32;6.00;99.90
66629;DHT22;53532;53.084;6.352;2022-12-05T06:02:58;6.00;99.90
66629;DHT22;53532;53.084;6.352;2022-12-05T06:05:24;6.00;99.90
66629;DHT22;53532;53.084;6.352;2022-12-05T06:07:51;6.00;99.90
66629;DHT22;53532;53.084;6.352;2022-12-05T06:10:17;6.00;99.90
66629;DHT22;53532;53.084;6.352;2022-12-05T06:12:44;6.00;99.90
66629;DHT22;53532;53.084;6.352;2022-12-05T06:15:10;6.10;99.90
66629;DHT22;53532;53.084;6.352;2022-12-05T06:17:36;6.10;99.90
66629;DHT22;53532;53.084;6.352;2022-12-05T06:20:03;6.10;99.90
66629;DHT22;53532;53.084;6.352;2022-12-05T06:22:29;6.00;99.90
66629;DHT22;53532;53.084;6.352;2022-12-05T06:24:54;6.10;99.90
66629;DHT22;53532;53.084;6.352;2022-12-05T06:27:20;6.10;99.90
66629;DHT22;53532;53.084;6.352;2022-12-05T06:29:47;6.00;99.90
66629;DHT22;53532;53.084;6.352;2022-12-05T06:32:13;6.10;99.90
66629;DHT22;53532;53.084;6.352;2022-12-05T06:34:39;6.10;99.90
66629;DHT22;53532;53.084;6.352;2022-12-05T06:37:05;6.10;99.90
66629;DHT22;53532;53.084;6.352;2022-12-05T06:39:31;6.10;99.90
66629;DHT22;53532;53.084;6.352;2022-12-05T06:41:57;6.10;99.90
66629;DHT22;53532;53.084;6.352;2022-12-05T06:44:22;6.10;99.90
66629;DHT22;53532;53.084;6.352;2022-12-05T06:46:53;6.10;99.90
66629;DHT22;53532;53.084;6.352;2022-12-05T06:49:20;6.10;99.90
66629;DHT22;53532;53.084;6.352;2022-12-05T06:51:46;6.10;99.90
66629;DHT22;53532;53.084;6.352;2022-12-05T06:54:12;6.10;99.90
66629;DHT22;53532;53.084;6.352;2022-12-05T06:56:38;6.10;99.90
66629;DHT22;53532;53.084;6.352;2022-12-05T06:59:04;6.10;99.90
66629;DHT22;53532;53.084;6.352;2022-12-05T07:01:30;6.10;99.90
66629;DHT22;53532;53.084;6.352;2022-12-05T07:04:10;6.10;99.90
66629;DHT22;53532;53.084;6.352;2022-12-05T07:06:37;6.20;99.90
66629;DHT22;53532;53.084;6.352;2022-12-05T07:09:03;6.10;99.90
66629;DHT22;53532;53.084;6.352;2022-12-05T07:11:29;6.10;99.90
66629;DHT22;53532;53.084;6.352;2022-12-05T07:16:21;6.10;99.90
66629;DHT22;53532;53.084;6.352;2022-12-05T07:18:48;6.10;99.90
66629;DHT22;53532;53.084;6.352;2022-12-05T07:21:16;6.20;99.90
66629;DHT22;53532;53.084;6.352;2022-12-05T07:23:43;6.10;99.90
66629;DHT22;53532;53.084;6.352;2022-12-05T07:26:11;6.20;99.90
66629;DHT22;53532;53.084;6.352;2022-12-05T07:28:37;6.10;99.90
66629;DHT22;53532;53.084;6.352;2022-12-05T07:31:04;6.10;99.90
66629;DHT22;53532;53.084;6.352;2022-12-05T07:33:31;6.10;99.90
66629;DHT22;53532;53.084;6.352;2022-12-05T07:36:00;6.10;99.90
66629;DHT22;53532;53.084;6.352;2022-12-05T07:38:27;6.10;99.90
66629;DHT22;53532;53.084;6.352;2022-12-05T07:40:53;6.10;99.90
66629;DHT22;53532;53.084;6.352;2022-12-05T07:43:19;6.10;99.90
66629;DHT22;53532;53.084;6.352;2022-12-05T07:45:45;6.10;99.90
66629;DHT22;53532;53.084;6.352;2022-12-05T07:48:11;6.20;99.90
66629;DHT22;53532;53.084;6.352;2022-12-05T07:50:36;6.10;99.90
66629;DHT22;53532;53.084;6.352;2022-12-05T07:53:02;6.10;99.90
66629;DHT22;53532;53.084;6.352;2022-12-05T07:55:29;6.20;99.90
66629;DHT22;53532;53.084;6.352;2022-12-05T07:57:55;6.20;99.90
66629;DHT22;53532;53.084;6.352;2022-12-05T08:00:21;6.10;99.90
66629;DHT22;53532;53.084;6.352;2022-12-05T08:02:47;6.20;99.90
66629;DHT22;53532;53.084;6.352;2022-12-05T08:05:13;6.20;99.90
66629;DHT22;53532;53.084;6.352;2022-12-05T08:07:40;6.20;99.90
66629;DHT22;53532;53.084;6.352;2022-12-05T08:10:06;6.20;99.90
66629;DHT22;53532;53.084;6.352;2022-12-05T08:12:34;6.20;99.90
66629;DHT22;53532;53.084;6.352;2022-12-05T08:14:59;6.20;99.90
66629;DHT22;53532;53.084;6.352;2022-12-05T08:17:28;6.20;99.90
66629;DHT22;53532;53.084;6.352;2022-12-05T08:19:54;6.20;99.90
66629;DHT22;53532;53.084;6.352;2022-12-05T08:22:20;6.20;99.90
66629;DHT22;53532;53.084;6.352;2022-12-05T08:24:48;6.20;99.90
66629;DHT22;53532;53.084;6.352;2022-12-05T08:27:14;6.20;99.90
66629;DHT22;53532;53.084;6.352;2022-12-05T08:29:41;6.30;99.90
66629;DHT22;53532;53.084;6.352;2022-12-05T08:32:07;6.30;99.90
66629;DHT22;53532;53.084;6.352;2022-12-05T08:34:33;6.20;99.90
66629;DHT22;53532;53.084;6.352;2022-12-05T08:36:59;6.30;99.90
66629;DHT22;53532;53.084;6.352;2022-12-05T08:39:24;6.30;99.90
66629;DHT22;53532;53.084;6.352;2022-12-05T08:41:51;6.30;99.90
66629;DHT22;53532;53.084;6.352;2022-12-05T08:44:17;6.20;99.90
66629;DHT22;53532;53.084;6.352;2022-12-05T08:46:46;6.30;99.90
66629;DHT22;53532;53.084;6.352;2022-12-05T08:49:12;6.30;99.90
66629;DHT22;53532;53.084;6.352;2022-12-05T08:51:39;6.30;99.90
66629;DHT22;53532;53.084;6.352;2022-12-05T08:54:05;6.30;99.90
66629;DHT22;53532;53.084;6.352;2022-12-05T08:56:31;6.30;99.90
66629;DHT22;53532;53.084;6.352;2022-12-05T08:58:58;6.30;99.90
66629;DHT22;53532;53.084;6.352;2022-12-05T09:01:24;6.30;99.90
66629;DHT22;53532;53.084;6.352;2022-12-05T09:03:56;6.30;99.90
66629;DHT22;53532;53.084;6.352;2022-12-05T09:06:24;6.40;99.90
66629;DHT22;53532;53.084;6.352;2022-12-05T09:08:53;6.40;99.90
66629;DHT22;53532;53.084;6.352;2022-12-05T09:11:22;6.40;99.90
66629;DHT22;53532;53.084;6.352;2022-12-05T09:13:52;6.40;99.90
66629;DHT22;53532;53.084;6.352;2022-12-05T09:16:20;6.30;99.90
66629;DHT22;53532;53.084;6.352;2022-12-05T09:18:47;6.40;99.90
66629;DHT22;53532;53.084;6.352;2022-12-05T09:21:16;6.40;99.90
66629;DHT22;53532;53.084;6.352;2022-12-05T09:23:42;6.40;99.90
66629;DHT22;53532;53.084;6.352;2022-12-05T09:26:11;6.30;99.90
66629;DHT22;53532;53.084;6.352;2022-12-05T09:28:38;6.30;99.90
66629;DHT22;53532;53.084;6.352;2022-12-05T09:31:05;6.30;99.90
66629;DHT22;53532;53.084;6.352;2022-12-05T09:33:33;6.30;99.90
66629;DHT22;53532;53.084;6.352;2022-12-05T09:36:01;6.30;99.90
66629;DHT22;53532;53.084;6.352;2022-12-05T09:38:28;6.40;99.90
66629;DHT22;53532;53.084;6.352;2022-12-05T09:41:02;6.40;99.90
66629;DHT22;53532;53.084;6.352;2022-12-05T09:43:33;6.40;99.90
66629;DHT22;53532;53.084;6.352;2022-12-05T09:46:14;6.40;99.90
66629;DHT22;53532;53.084;6.352;2022-12-05T09:48:43;6.40;99.90
66629;DHT22;53532;53.084;6.352;2022-12-05T09:51:10;6.40;99.90
66629;DHT22;53532;53.084;6.352;2022-12-05T09:53:39;6.30;99.90
66629;DHT22;53532;53.084;6.352;2022-12-05T09:56:12;6.30;99.90
66629;DHT22;53532;53.084;6.352;2022-12-05T09:58:44;6.30;99.90
66629;DHT22;53532;53.084;6.352;2022-12-05T10:01:22;6.30;99.90
66629;DHT22;53532;53.084;6.352;2022-12-05T10:04:05;6.30;99.90
66629;DHT22;53532;53.084;6.352;2022-12-05T10:06:35;6.30;99.90
66629;DHT22;53532;53.084;6.352;2022-12-05T10:09:13;6.30;99.90
66629;DHT22;53532;53.084;6.352;2022-12-05T10:11:48;6.30;99.90
66629;DHT22;53532;53.084;6.352;2022-12-05T10:14:24;6.30;99.90
66629;DHT22;53532;53.084;6.352;2022-12-05T10:16:55;6.30;99.90
66629;DHT22;53532;53.084;6.352;2022-12-05T10:19:25;6.30;99.90
66629;DHT22;53532;53.084;6.352;2022-12-05T10:21:56;6.30;99.90
66629;DHT22;53532;53.084;6.352;2022-12-05T10:24:30;6.30;99.90
66629;DHT22;53532;53.084;6.352;2022-12-05T10:26:59;6.30;99.90
66629;DHT22;53532;53.084;6.352;2022-12-05T10:29:28;6.30;99.90
66629;DHT22;53532;53.084;6.352;2022-12-05T10:32:03;6.30;99.90
66629;DHT22;53532;53.084;6.352;2022-12-05T10:34:33;6.30;99.90
66629;DHT22;53532;53.084;6.352;2022-12-05T10:37:08;6.30;99.90
66629;DHT22;53532;53.084;6.352;2022-12-05T10:39:36;6.30;99.90
